Hovedside
METAR-TAF:

METAR-TAF

Lufthavner :

Tahiti internasjonale lufthavn

Tahiti, Fransk Polynesia

breddegrad: 17-33S, lengdegrad: 149-37W, høyde over havet: 2 m

Gjeldene værobservasjon

Denne rapporten ble laget for 29 minutter siden, klokken 15:00 UTC
Vind 4 kt fra Øst-nordøst
Temperatur 24°C
Luftfuktighet 74%
Trykk 1012 hPa
Sikt 10 km eller mer

METAR: NTAA 141500Z AUTO 07004KT 9999 NCD 24/19 Q1012

Tid: 05:29 (15:29 UTC)

Varsel

Denne rapporten ble laget for 4 timer og 29 minutter siden, klokken 11:00 UTC
Varsel gyldig fra 14. klokken 12 UTC til 15. klokken 18 UTC
Vind 5 kt fra skiftende retning
Sikt 10 km eller mer
Få skyer i en høyde av 2600 ft
Brutte skyer i en høyde av 26000 ft
Sannsynlighet 40% :
Midlertidig
fra 14. klokken 20 UTC til 15. klokken 04 UTC
Vind 12 kt fra Nordøst

TAF: NTAA 141100Z 1412/1518 VRB05KT 9999 FEW026 BKN260 PROB40 TEMPO 1420/1504 05012KT

Værobservasjoner og værvarsel for over 4000 flyplasser (METAR- og TAF-rapporter).

Tilgjengelige stasjoner er representert av de røde og gule prikkene på kartet.

Hold musepekeren over prikken for å se navnet på stasjonen.

Klikk så for å se værobservasjoner og -varsler.

For å forandre kartet kan du klikke på den grønne knappen med svart kryss for å zoome inn, på den grønne knappen med strek for å zoome ut, eller på de grønne pilene for å se tilstøtende kart.


METAR-TAF: